Time;durP1;ratioP1;P1;durP2;ratioP2;P2;SDS_P1;SDS_P2;PMS_P1;PMS_P2;Temp;Humidity;BMP_temperature;BMP_pressure;BME280_temperature;BME280_humidity;BME280_pressure;Samples;Min_cycle;Max_cycle;Signal;HPM_P1;HPM_P2
2021/05/20 00:00:01;;;;;;;2.50;1.73;;;13.10;87.60;;;;;;10498808;28;20232;-77
2021/05/20 00:05:03;;;;;;;1.63;1.50;;;13.10;87.50;;;;;;10494813;28;20282;-77
2021/05/20 00:10:06;;;;;;;1.50;1.40;;;13.10;88.00;;;;;;10494609;28;20199;-77
2021/05/20 00:15:09;;;;;;;1.73;1.63;;;13.10;87.70;;;;;;10463380;28;20235;-77
2021/05/20 00:20:11;;;;;;;1.70;1.60;;;13.10;87.80;;;;;;10483477;28;20212;-77
2021/05/20 00:25:13;;;;;;;1.50;1.33;;;13.10;89.00;;;;;;10501345;28;20217;-77
2021/05/20 00:30:17;;;;;;;6.77;1.80;;;13.10;89.40;;;;;;10497114;28;20215;-77
2021/05/20 00:35:18;;;;;;;1.90;1.70;;;13.10;89.40;;;;;;10482561;28;20224;-77
2021/05/20 00:40:20;;;;;;;1.60;1.50;;;13.10;89.90;;;;;;10494653;28;20695;-77
2021/05/20 00:45:24;;;;;;;1.53;1.43;;;13.10;90.00;;;;;;10482244;28;20212;-77
2021/05/20 00:50:25;;;;;;;2.53;2.00;;;13.10;90.60;;;;;;10498309;28;20239;-77
2021/05/20 00:55:31;;;;;;;3.60;1.67;;;13.10;89.80;;;;;;10488744;28;20309;-77
2021/05/20 01:00:34;;;;;;;2.80;1.93;;;13.00;89.80;;;;;;10476930;28;20210;-77
2021/05/20 01:05:36;;;;;;;2.03;1.93;;;12.90;90.00;;;;;;10497122;28;20220;-77
2021/05/20 01:10:37;;;;;;;1.33;1.23;;;12.90;90.00;;;;;;10464348;28;20212;-77
2021/05/20 01:15:40;;;;;;;1.40;1.30;;;12.90;89.50;;;;;;10481292;28;20233;-77
2021/05/20 01:20:44;;;;;;;1.70;1.60;;;12.90;90.70;;;;;;10492508;28;20317;-77
2021/05/20 01:25:47;;;;;;;1.80;1.27;;;13.00;90.30;;;;;;10480543;28;20250;-77
2021/05/20 01:30:50;;;;;;;2.17;1.80;;;12.90;90.40;;;;;;10491571;28;20558;-77
2021/05/20 01:35:53;;;;;;;1.40;1.20;;;12.90;91.00;;;;;;10496000;28;20611;-77
2021/05/20 01:40:57;;;;;;;1.43;1.33;;;13.00;89.60;;;;;;10498354;28;20201;-77
2021/05/20 01:45:59;;;;;;;1.40;1.30;;;12.90;88.80;;;;;;10479170;28;20223;-77
2021/05/20 01:51:04;;;;;;;1.60;1.50;;;12.90;89.70;;;;;;10479601;28;20553;-77
2021/05/20 01:56:08;;;;;;;1.37;1.30;;;12.70;91.00;;;;;;10496865;28;20311;-77
2021/05/20 02:01:09;;;;;;;1.63;1.53;;;12.70;91.30;;;;;;10491409;28;20200;-77
2021/05/20 02:06:12;;;;;;;1.80;1.70;;;12.70;91.10;;;;;;10497041;28;20224;-78
2021/05/20 02:11:14;;;;;;;2.13;1.80;;;12.70;91.00;;;;;;10497248;28;20205;-78
2021/05/20 02:16:16;;;;;;;6.10;1.60;;;12.60;91.30;;;;;;10472282;28;20260;-77
2021/05/20 02:21:18;;;;;;;1.80;1.70;;;12.60;91.40;;;;;;10490039;28;20207;-77
2021/05/20 02:26:20;;;;;;;1.50;1.50;;;12.60;91.80;;;;;;10472250;28;20228;-77
2021/05/20 02:31:21;;;;;;;1.40;1.40;;;12.60;91.30;;;;;;10500538;28;20336;-78
2021/05/20 02:36:24;;;;;;;1.63;1.53;;;12.60;91.30;;;;;;10508138;28;20855;-77
2021/05/20 02:41:25;;;;;;;1.47;1.37;;;12.50;91.70;;;;;;10491998;28;20295;-77
2021/05/20 02:46:27;;;;;;;2.00;1.90;;;12.50;91.90;;;;;;10475695;28;20250;-77
2021/05/20 02:51:29;;;;;;;1.70;1.60;;;12.50;91.90;;;;;;10475489;28;20219;-77
2021/05/20 02:56:31;;;;;;;1.50;1.40;;;12.50;91.60;;;;;;10469090;28;20827;-77
2021/05/20 03:01:39;;;;;;;1.57;1.47;;;12.40;91.90;;;;;;10471276;28;20208;-77
2021/05/20 03:06:42;;;;;;;1.73;1.63;;;12.50;91.80;;;;;;10475866;28;20216;-77
2021/05/20 03:11:43;;;;;;;1.30;1.20;;;12.50;92.10;;;;;;10493667;28;20201;-77
2021/05/20 03:16:45;;;;;;;1.47;1.47;;;12.40;91.90;;;;;;10492993;28;20224;-77
2021/05/20 03:21:48;;;;;;;2.07;1.63;;;12.40;91.50;;;;;;10493291;28;20214;-77
2021/05/20 03:26:49;;;;;;;2.00;1.90;;;12.30;91.70;;;;;;10474943;28;20289;-77
2021/05/20 03:31:51;;;;;;;1.73;1.63;;;12.40;91.50;;;;;;10475410;28;20197;-77
2021/05/20 03:36:53;;;;;;;2.20;2.10;;;12.30;91.90;;;;;;10478009;28;20248;-77
2021/05/20 03:41:55;;;;;;;1.83;1.73;;;12.30;92.60;;;;;;10483085;28;20200;-77
2021/05/20 03:46:57;;;;;;;2.57;2.47;;;12.30;92.50;;;;;;10499984;28;20251;-77
2021/05/20 03:52:00;;;;;;;1.90;1.67;;;12.40;92.60;;;;;;10500040;28;20220;-77
2021/05/20 03:57:02;;;;;;;1.87;1.77;;;12.40;93.50;;;;;;10497134;22;20236;-80
2021/05/20 04:02:03;;;;;;;1.73;1.63;;;12.40;93.90;;;;;;10501230;28;20212;-79
2021/05/20 04:07:06;;;;;;;1.73;1.63;;;12.40;94.50;;;;;;10454734;28;20218;-80
2021/05/20 04:12:08;;;;;;;1.53;1.43;;;12.40;94.40;;;;;;10447197;28;20225;-81
2021/05/20 04:17:10;;;;;;;1.67;1.57;;;12.50;94.10;;;;;;10450084;28;20664;-81
2021/05/20 04:22:12;;;;;;;4.40;1.33;;;12.50;93.40;;;;;;10433253;28;20249;-80
2021/05/20 04:27:14;;;;;;;1.40;1.30;;;12.50;93.60;;;;;;10469636;28;20213;-81
2021/05/20 04:32:15;;;;;;;3.43;1.37;;;12.60;93.50;;;;;;10464216;28;20197;-80
2021/05/20 04:37:18;;;;;;;1.40;1.30;;;12.60;93.70;;;;;;10451606;28;20232;-81
2021/05/20 04:42:20;;;;;;;1.80;1.63;;;12.60;93.90;;;;;;10452687;28;20579;-81
2021/05/20 04:47:21;;;;;;;1.60;1.50;;;12.70;93.80;;;;;;10463617;28;20282;-80
2021/05/20 04:52:24;;;;;;;1.33;1.20;;;12.80;93.40;;;;;;10445384;28;20210;-80
2021/05/20 04:57:26;;;;;;;1.57;1.50;;;12.90;92.70;;;;;;10453802;28;20275;-81
2021/05/20 05:02:27;;;;;;;1.13;1.13;;;13.00;92.70;;;;;;10446083;28;20208;-81
2021/05/20 05:07:30;;;;;;;1.60;1.50;;;13.20;93.20;;;;;;10444958;28;20213;-82
2021/05/20 05:12:32;;;;;;;1.20;1.10;;;13.30;93.30;;;;;;10441261;28;20286;-84
2021/05/20 05:17:34;;;;;;;1.37;1.30;;;13.40;93.00;;;;;;10408816;28;20240;-84
2021/05/20 05:22:37;;;;;;;1.80;1.43;;;13.60;93.00;;;;;;10389639;28;20209;-83
2021/05/20 05:27:39;;;;;;;2.30;2.10;;;13.80;91.60;;;;;;10418958;28;20221;-84
2021/05/20 05:32:40;;;;;;;1.73;1.63;;;13.90;92.20;;;;;;10414574;28;20297;-84
2021/05/20 05:37:43;;;;;;;1.30;1.30;;;13.80;92.50;;;;;;10442179;28;20232;-84
2021/05/20 05:42:45;;;;;;;1.10;1.10;;;13.80;92.40;;;;;;10450280;28;20621;-84
2021/05/20 05:47:46;;;;;;;1.80;1.70;;;13.80;92.90;;;;;;10451526;28;20236;-83
2021/05/20 05:52:49;;;;;;;1.77;1.67;;;13.90;91.90;;;;;;10451014;28;20274;-83
2021/05/20 05:57:50;;;;;;;1.67;1.57;;;14.00;91.70;;;;;;10450726;28;20236;-83
2021/05/20 06:02:52;;;;;;;1.40;1.30;;;14.10;92.00;;;;;;10447864;28;20201;-82
2021/05/20 06:07:55;;;;;;;1.73;1.60;;;14.20;93.00;;;;;;10448180;28;20497;-84
2021/05/20 06:12:57;;;;;;;1.80;1.70;;;14.30;92.40;;;;;;10445251;28;20650;-84
2021/05/20 06:17:59;;;;;;;1.87;1.77;;;14.50;91.30;;;;;;10426674;28;20263;-82
2021/05/20 06:23:01;;;;;;;1.60;1.50;;;14.50;91.90;;;;;;10422287;28;20208;-83
2021/05/20 06:28:06;;;;;;;1.80;1.70;;;14.50;91.50;;;;;;10434505;28;20220;-82
2021/05/20 06:33:07;;;;;;;1.63;1.53;;;14.40;90.20;;;;;;10439203;28;20232;-82
2021/05/20 06:38:10;;;;;;;1.43;1.33;;;14.30;91.10;;;;;;10436411;28;20649;-82
2021/05/20 06:43:12;;;;;;;1.90;1.80;;;14.30;91.50;;;;;;10448667;28;20205;-82
2021/05/20 06:48:15;;;;;;;1.77;1.67;;;14.40;91.80;;;;;;10436706;28;20299;-82
2021/05/20 06:53:20;;;;;;;1.70;1.60;;;14.50;92.00;;;;;;10438570;28;20223;-82
2021/05/20 07:03:43;;;;;;;1.33;1.33;;;15.10;91.70;;;;;;10435184;28;20180;-84
2021/05/20 07:08:45;;;;;;;2.07;1.93;;;15.40;89.80;;;;;;10431381;28;20271;-82
2021/05/20 07:13:47;;;;;;;1.73;1.63;;;15.50;90.70;;;;;;10448410;28;20243;-84
2021/05/20 07:18:49;;;;;;;1.53;1.43;;;16.00;89.10;;;;;;10433033;28;20320;-84
2021/05/20 07:23:51;;;;;;;2.13;1.93;;;16.30;88.00;;;;;;10473994;28;20209;-83
2021/05/20 07:28:53;;;;;;;1.60;1.50;;;16.10;88.10;;;;;;10437583;28;20232;-84
2021/05/20 07:33:55;;;;;;;1.60;1.50;;;15.90;88.50;;;;;;10452386;28;20720;-83
2021/05/20 07:38:57;;;;;;;3.90;1.53;;;15.80;90.40;;;;;;10450359;28;20229;-82
2021/05/20 07:43:59;;;;;;;1.77;1.67;;;16.00;90.50;;;;;;10451661;28;20295;-83
2021/05/20 07:49:01;;;;;;;1.60;1.50;;;16.20;89.40;;;;;;10421580;28;20229;-83
2021/05/20 07:54:05;;;;;;;1.50;1.40;;;16.50;86.70;;;;;;10414449;28;20963;-84
2021/05/20 07:59:06;;;;;;;2.30;1.50;;;16.70;83.70;;;;;;10426737;28;20233;-84
2021/05/20 08:04:10;;;;;;;1.50;1.40;;;16.90;83.40;;;;;;10430131;28;20232;-84
2021/05/20 08:09:20;;;;;;;2.13;1.90;;;17.20;83.70;;;;;;10446929;28;20205;-84
2021/05/20 08:14:21;;;;;;;1.27;1.17;;;17.30;84.30;;;;;;10397196;28;20697;-83
2021/05/20 08:19:23;;;;;;;1.37;1.27;;;17.30;81.50;;;;;;10412001;28;20678;-83
2021/05/20 08:24:26;;;;;;;1.40;1.30;;;17.10;80.00;;;;;;10406173;28;20572;-84
2021/05/20 08:29:29;;;;;;;1.40;1.30;;;16.70;81.50;;;;;;10446100;28;20197;-84
2021/05/20 08:34:31;;;;;;;1.47;1.37;;;16.60;82.80;;;;;;10450429;28;20229;-84
2021/05/20 08:39:33;;;;;;;1.80;1.70;;;16.60;82.30;;;;;;10437127;28;20308;-83
2021/05/20 08:44:35;;;;;;;1.00;1.00;;;16.90;80.70;;;;;;10472556;28;20588;-83
2021/05/20 08:49:37;;;;;;;1.50;1.40;;;17.60;81.60;;;;;;10440436;28;20299;-83
2021/05/20 08:54:40;;;;;;;1.40;1.30;;;18.40;78.90;;;;;;10449946;28;20624;-83
2021/05/20 08:59:42;;;;;;;1.40;1.30;;;18.70;78.40;;;;;;10452972;28;20241;-85
2021/05/20 09:04:44;;;;;;;1.60;1.50;;;19.30;77.60;;;;;;10438307;28;20238;-84
2021/05/20 09:09:48;;;;;;;1.43;1.27;;;19.50;74.40;;;;;;10451994;28;20572;-84
2021/05/20 09:14:50;;;;;;;1.33;1.30;;;19.40;73.20;;;;;;10456716;28;20296;-85
2021/05/20 09:19:53;;;;;;;1.37;1.30;;;19.60;73.20;;;;;;10452747;28;20208;-83
2021/05/20 09:24:58;;;;;;;1.73;1.30;;;19.60;69.40;;;;;;10465040;28;20225;-82
2021/05/20 09:30:18;;;;;;;1.67;1.17;;;19.20;68.60;;;;;;10458012;28;20205;-83
2021/05/20 09:35:22;;;;;;;1.60;1.50;;;18.60;70.80;;;;;;10406548;28;20233;-82
2021/05/20 09:40:26;;;;;;;1.20;1.20;;;18.10;72.80;;;;;;10421857;28;20312;-82
2021/05/20 09:45:29;;;;;;;1.40;1.30;;;17.60;73.90;;;;;;10383447;28;20265;-83
2021/05/20 09:50:36;;;;;;;1.13;1.10;;;17.30;76.30;;;;;;10420510;28;20221;-83
2021/05/20 09:55:52;;;;;;;1.50;1.40;;;17.10;76.30;;;;;;10428942;22;20232;-79
2021/05/20 10:00:54;;;;;;;1.60;1.50;;;17.00;77.40;;;;;;10474777;28;20202;-78
2021/05/20 10:05:57;;;;;;;2.03;1.60;;;16.90;75.80;;;;;;10449762;28;20603;-76
2021/05/20 10:11:02;;;;;;;1.43;1.27;;;17.10;76.50;;;;;;10422569;28;20194;-76
2021/05/20 10:21:20;;;;;;;1.23;1.13;;;18.00;73.80;;;;;;10537110;22;20226;-78
2021/05/20 10:26:22;;;;;;;1.20;1.10;;;18.30;72.90;;;;;;10462669;28;20228;-77
2021/05/20 10:31:25;;;;;;;1.20;1.10;;;18.50;71.10;;;;;;10453516;28;20197;-78
2021/05/20 10:36:29;;;;;;;1.27;1.00;;;18.50;70.70;;;;;;10438615;28;20241;-78
2021/05/20 10:41:43;;;;;;;1.33;1.33;;;18.50;67.30;;;;;;10427001;28;20764;-78
2021/05/20 10:47:02;;;;;;;1.00;1.00;;;18.50;66.90;;;;;;10456386;28;20685;-78
2021/05/20 10:52:04;;;;;;;1.10;1.10;;;18.50;67.70;;;;;;10437829;28;20239;-78
2021/05/20 10:57:07;;;;;;;1.20;1.10;;;18.40;64.10;;;;;;10441721;28;20228;-78
2021/05/20 11:02:30;;;;;;;1.30;1.30;;;18.40;63.90;;;;;;10452404;28;20699;-78
2021/05/20 11:07:32;;;;;;;1.07;1.07;;;18.50;68.60;;;;;;10427673;28;20271;-78
2021/05/20 11:12:55;;;;;;;1.20;1.10;;;18.40;67.20;;;;;;10436254;28;20213;-78
2021/05/20 11:18:16;;;;;;;1.40;1.37;;;18.20;69.40;;;;;;10435934;28;20300;-78
2021/05/20 11:23:36;;;;;;;1.03;1.03;;;17.90;70.00;;;;;;10431931;28;20218;-78
2021/05/20 11:28:50;;;;;;;1.63;1.53;;;17.70;72.20;;;;;;10428322;28;20224;-78
2021/05/20 11:34:07;;;;;;;1.17;1.17;;;17.50;71.10;;;;;;10413502;28;20201;-78
2021/05/20 11:39:12;;;;;;;1.40;1.30;;;17.40;73.70;;;;;;10446718;28;20244;-78
2021/05/20 11:44:17;;;;;;;1.40;1.30;;;17.40;73.40;;;;;;10452886;28;20263;-78
2021/05/20 11:49:21;;;;;;;1.53;1.43;;;17.30;71.50;;;;;;10452370;28;20244;-78
2021/05/20 11:54:26;;;;;;;1.30;1.20;;;17.40;73.10;;;;;;10434029;28;20285;-78
2021/05/20 11:59:50;;;;;;;4.20;3.90;;;17.70;71.80;;;;;;10458033;28;20283;-78
2021/05/20 12:04:58;;;;;;;1.20;1.20;;;18.10;67.60;;;;;;10458988;28;20749;-78
2021/05/20 12:10:11;;;;;;;0.83;0.83;;;18.40;66.90;;;;;;10456194;28;20267;-79
2021/05/20 12:15:16;;;;;;;1.20;1.10;;;18.60;66.10;;;;;;10459668;28;20233;-78
2021/05/20 12:20:19;;;;;;;1.20;1.10;;;18.70;64.90;;;;;;10460766;28;20756;-78
2021/05/20 12:25:23;;;;;;;1.90;1.10;;;18.60;62.20;;;;;;10441680;28;20255;-78
2021/05/20 12:30:27;;;;;;;1.10;1.10;;;18.50;64.50;;;;;;10440902;28;20279;-78
2021/05/20 12:35:31;;;;;;;1.30;1.20;;;18.60;59.80;;;;;;10432837;28;20239;-79
2021/05/20 12:40:35;;;;;;;1.10;1.10;;;18.70;62.50;;;;;;10454601;28;20213;-78
2021/05/20 12:45:40;;;;;;;1.20;1.20;;;18.80;62.30;;;;;;10410546;28;20312;-78
2021/05/20 12:50:43;;;;;;;6.77;1.20;;;18.60;63.40;;;;;;10422782;28;20205;-79
2021/05/20 12:55:45;;;;;;;1.27;1.17;;;18.40;62.40;;;;;;10423121;28;20768;-78
2021/05/20 13:00:54;;;;;;;1.00;1.00;;;18.10;64.60;;;;;;10422015;28;20237;-78
2021/05/20 13:05:59;;;;;;;1.10;1.10;;;18.10;63.50;;;;;;10424626;28;20213;-78
2021/05/20 13:11:12;;;;;;;2.20;1.10;;;18.20;62.70;;;;;;10433928;28;20208;-78
2021/05/20 13:16:22;;;;;;;1.00;1.00;;;18.50;61.70;;;;;;10456989;28;20221;-78
2021/05/20 13:26:43;;;;;;;1.17;1.07;;;18.60;66.20;;;;;;10426400;28;20697;-78
2021/05/20 13:31:46;;;;;;;1.43;1.20;;;18.50;65.50;;;;;;10426749;28;20671;-78
2021/05/20 13:36:48;;;;;;;1.30;1.10;;;18.40;65.90;;;;;;10444595;28;20228;-78
2021/05/20 13:41:49;;;;;;;1.10;1.10;;;18.30;67.10;;;;;;10416218;28;20198;-78
2021/05/20 13:46:52;;;;;;;1.37;1.37;;;18.10;68.60;;;;;;10409590;28;20225;-78
2021/05/20 13:51:55;;;;;;;1.00;1.00;;;17.90;70.80;;;;;;10425269;28;20203;-78
2021/05/20 13:56:59;;;;;;;1.10;1.10;;;17.80;70.60;;;;;;10419585;28;20285;-78
2021/05/20 14:02:03;;;;;;;1.30;1.20;;;17.80;68.00;;;;;;10405137;28;20205;-78
2021/05/20 14:07:06;;;;;;;1.30;1.20;;;17.90;69.50;;;;;;10425190;28;20226;-79
2021/05/20 14:12:10;;;;;;;3.90;1.00;;;18.00;71.40;;;;;;10405272;28;20636;-79
2021/05/20 14:17:13;;;;;;;1.30;1.20;;;18.00;71.70;;;;;;10387376;28;20229;-79
2021/05/20 14:22:18;;;;;;;1.50;1.40;;;18.10;69.90;;;;;;10414669;28;20666;-78
2021/05/20 14:27:20;;;;;;;1.10;1.10;;;18.00;72.60;;;;;;10417211;28;20221;-78
2021/05/20 14:32:24;;;;;;;1.30;1.20;;;18.10;69.30;;;;;;10434172;28;20660;-79
2021/05/20 14:37:26;;;;;;;1.20;1.20;;;18.30;68.40;;;;;;10451638;28;20704;-79
2021/05/20 14:42:27;;;;;;;1.10;1.10;;;18.50;63.40;;;;;;10455699;28;20197;-79
2021/05/20 14:47:33;;;;;;;1.27;1.07;;;18.50;65.00;;;;;;10436026;28;20237;-78
2021/05/20 14:52:37;;;;;;;1.07;1.07;;;18.20;64.70;;;;;;10449724;28;20584;-79
2021/05/20 15:08:18;;;;;;;1.63;1.53;;;17.80;70.60;;;;;;10436770;28;20268;-78
2021/05/20 15:13:29;;;;;;;1.93;1.83;;;17.70;71.30;;;;;;10407482;28;20210;-78
2021/05/20 15:18:32;;;;;;;1.77;1.67;;;17.80;70.60;;;;;;10424026;28;20225;-79
2021/05/20 15:23:33;;;;;;;1.30;1.23;;;18.00;70.50;;;;;;10435919;28;20229;-79
2021/05/20 15:28:35;;;;;;;1.20;0.97;;;18.10;72.80;;;;;;10434989;28;20246;-79
2021/05/20 15:33:38;;;;;;;4.10;2.40;;;18.00;71.60;;;;;;10441225;28;20292;-79
2021/05/20 15:38:39;;;;;;;1.70;1.60;;;18.00;73.00;;;;;;10453486;28;20716;-78
2021/05/20 15:43:41;;;;;;;1.33;1.23;;;18.00;71.30;;;;;;10454785;28;20252;-78
2021/05/20 15:54:05;;;;;;;1.30;1.30;;;18.10;62.30;;;;;;10442511;28;20232;-79
2021/05/20 15:59:07;;;;;;;1.30;1.20;;;18.00;59.40;;;;;;10471652;22;20249;-81
2021/05/20 16:04:11;;;;;;;1.27;1.27;;;18.00;59.60;;;;;;10432167;28;20234;-82
2021/05/20 16:09:16;;;;;;;1.97;1.17;;;17.90;63.60;;;;;;10430313;28;20654;-82
2021/05/20 16:20:02;;;;;;;2.70;1.30;;;17.90;68.00;;;;;;10404009;28;20218;-82
2021/05/20 16:25:24;;;;;;;1.60;1.50;;;17.90;67.50;;;;;;10401348;28;20210;-82
2021/05/20 16:35:52;;;;;;;1.20;1.20;;;17.80;65.30;;;;;;10380110;28;20297;-82
2021/05/20 16:40:54;;;;;;;2.10;1.60;;;17.80;66.50;;;;;;10373644;28;20301;-82
2021/05/20 16:45:55;;;;;;;1.50;1.40;;;17.70;65.80;;;;;;10379080;28;20214;-81
2021/05/20 16:50:58;;;;;;;1.50;1.40;;;17.70;66.20;;;;;;10381483;28;20658;-82
2021/05/20 16:56:06;;;;;;;1.77;1.67;;;17.60;66.10;;;;;;10380476;28;20317;-81
2021/05/20 17:01:08;;;;;;;1.47;1.37;;;17.50;67.30;;;;;;10380716;28;20211;-81
2021/05/20 17:06:10;;;;;;;2.60;1.40;;;17.50;70.50;;;;;;10389169;28;20234;-81
2021/05/20 17:11:12;;;;;;;1.30;1.30;;;17.40;64.40;;;;;;10374842;28;20244;-82
2021/05/20 17:16:14;;;;;;;1.40;1.40;;;17.40;65.00;;;;;;10357195;28;20298;-82
2021/05/20 17:21:16;;;;;;;1.83;1.73;;;17.30;65.60;;;;;;10404434;28;20210;-82
2021/05/20 17:26:19;;;;;;;1.60;1.50;;;17.20;66.00;;;;;;10375848;28;20714;-82
2021/05/20 17:31:22;;;;;;;1.60;1.50;;;17.20;68.40;;;;;;10367429;28;20236;-82
2021/05/20 17:36:26;;;;;;;3.63;1.70;;;17.20;68.10;;;;;;10359118;28;20234;-80
2021/05/20 17:41:27;;;;;;;1.30;1.30;;;17.20;69.90;;;;;;10371838;28;20211;-81
2021/05/20 17:46:29;;;;;;;1.40;1.40;;;17.20;70.80;;;;;;10346822;28;20234;-80
2021/05/20 17:51:32;;;;;;;2.73;1.53;;;17.10;70.90;;;;;;10350264;28;20207;-84
2021/05/20 17:56:33;;;;;;;1.80;1.70;;;17.10;68.80;;;;;;10356532;28;20258;-82
2021/05/20 18:01:35;;;;;;;1.73;1.63;;;17.00;70.10;;;;;;10384927;28;20205;-83
2021/05/20 18:06:39;;;;;;;1.20;1.10;;;17.00;70.50;;;;;;10335808;28;20601;-80
2021/05/20 18:12:06;;;;;;;2.00;1.90;;;16.90;70.90;;;;;;10339571;28;20240;-78
2021/05/20 18:17:13;;;;;;;1.67;1.57;;;16.80;70.20;;;;;;10362988;28;20765;-84
2021/05/20 18:22:22;;;;;;;1.57;1.47;;;16.70;70.90;;;;;;10338115;28;20301;-80
2021/05/20 18:27:25;;;;;;;1.37;1.27;;;16.70;69.70;;;;;;10378483;28;20618;-80
2021/05/20 18:32:27;;;;;;;1.57;1.47;;;16.60;70.20;;;;;;10359585;28;20690;-80
2021/05/20 18:37:30;;;;;;;1.80;1.70;;;16.50;73.10;;;;;;10373333;28;20222;-79
2021/05/20 18:42:35;;;;;;;1.53;1.43;;;16.50;74.30;;;;;;10376826;28;20194;-82
2021/05/20 18:47:40;;;;;;;3.30;2.97;;;16.50;68.40;;;;;;10351024;28;20238;-81
2021/05/20 18:52:43;;;;;;;2.77;2.50;;;16.40;70.20;;;;;;10364109;28;20214;-83
2021/05/20 18:57:45;;;;;;;2.70;2.50;;;16.30;74.10;;;;;;10359858;28;20647;-81
2021/05/20 19:02:47;;;;;;;1.80;1.70;;;16.20;74.60;;;;;;10357145;28;20214;-80
2021/05/20 19:07:58;;;;;;;4.23;2.73;;;16.10;74.80;;;;;;10366110;28;20706;-81
2021/05/20 19:12:59;;;;;;;3.23;3.03;;;16.00;74.80;;;;;;10367983;28;20229;-82
2021/05/20 19:18:03;;;;;;;2.83;2.63;;;15.80;74.90;;;;;;10352540;28;20714;-84
2021/05/20 19:23:06;;;;;;;3.40;3.20;;;15.70;75.10;;;;;;10370626;28;20214;-83
2021/05/20 19:28:08;;;;;;;2.37;2.00;;;15.60;76.20;;;;;;10352877;28;20638;-81
2021/05/20 19:33:09;;;;;;;2.10;1.57;;;15.50;75.30;;;;;;10351210;28;20218;-80
2021/05/20 19:38:12;;;;;;;1.80;1.70;;;15.40;76.10;;;;;;10360869;28;20266;-81
2021/05/20 19:43:14;;;;;;;1.80;1.70;;;15.30;75.30;;;;;;10353223;28;20199;-80
2021/05/20 19:48:16;;;;;;;1.70;1.60;;;15.20;75.90;;;;;;10327744;28;20242;-80
2021/05/20 19:53:22;;;;;;;2.03;1.93;;;15.10;76.00;;;;;;10358961;28;20205;-79
2021/05/20 20:03:52;;;;;;;1.90;1.80;;;15.00;76.50;;;;;;10366005;28;20205;-80
2021/05/20 20:08:55;;;;;;;1.93;1.83;;;15.00;75.20;;;;;;10382648;28;20211;-82
2021/05/20 20:13:57;;;;;;;1.70;1.60;;;14.90;75.70;;;;;;10346505;28;20198;-80
2021/05/20 20:19:03;;;;;;;2.20;2.03;;;14.80;76.10;;;;;;10332314;28;20238;-78
2021/05/20 20:24:13;;;;;;;1.90;1.80;;;14.70;76.90;;;;;;10325882;28;20206;-79
2021/05/20 20:29:14;;;;;;;1.60;1.50;;;14.70;77.10;;;;;;10366041;28;20347;-82
2021/05/20 20:34:33;;;;;;;4.30;2.00;;;14.60;76.70;;;;;;10364332;28;20203;-83
2021/05/20 20:44:56;;;;;;;2.20;2.00;;;14.60;78.00;;;;;;10367788;28;20200;-83
2021/05/20 20:50:00;;;;;;;1.90;1.80;;;14.60;77.70;;;;;;10362204;28;20196;-81
2021/05/20 20:55:03;;;;;;;2.30;2.20;;;14.60;78.10;;;;;;10364576;28;20238;-81
2021/05/20 21:00:06;;;;;;;2.60;2.40;;;14.60;78.10;;;;;;10369373;28;20211;-79
2021/05/20 21:05:09;;;;;;;2.03;1.90;;;14.50;78.60;;;;;;10357009;28;20249;-81
2021/05/20 21:10:12;;;;;;;2.50;2.10;;;14.50;78.40;;;;;;10376206;28;20565;-81
2021/05/20 21:15:15;;;;;;;2.20;2.10;;;14.40;79.00;;;;;;10355356;28;20247;-80
2021/05/20 21:20:16;;;;;;;1.90;1.80;;;14.40;79.10;;;;;;10380764;28;20225;-84
2021/05/20 21:25:19;;;;;;;2.17;2.03;;;14.40;79.50;;;;;;10339587;28;20234;-80
2021/05/20 21:30:21;;;;;;;2.37;2.20;;;14.40;80.50;;;;;;10365087;28;20210;-80
2021/05/20 21:35:23;;;;;;;2.13;2.03;;;14.40;80.60;;;;;;10356148;28;20234;-82
2021/05/20 21:40:26;;;;;;;1.80;1.70;;;14.40;81.00;;;;;;10339936;28;20246;-82
2021/05/20 21:45:30;;;;;;;1.90;1.80;;;14.40;81.50;;;;;;10356842;28;20210;-82
2021/05/20 21:50:32;;;;;;;1.90;1.80;;;14.30;81.10;;;;;;10364692;28;20203;-82
2021/05/20 21:55:34;;;;;;;2.03;1.67;;;14.30;81.50;;;;;;10367578;22;20246;-79
2021/05/20 22:01:00;;;;;;;1.83;1.73;;;14.30;82.60;;;;;;10436135;28;20204;-79
2021/05/20 22:06:03;;;;;;;2.23;2.13;;;14.30;82.40;;;;;;10407883;28;20262;-79
2021/05/20 22:11:10;;;;;;;2.20;2.10;;;14.20;83.50;;;;;;10366729;28;20270;-79
2021/05/20 22:16:11;;;;;;;2.90;2.03;;;14.30;82.70;;;;;;10425338;28;20280;-79
2021/05/20 22:21:13;;;;;;;2.30;2.20;;;14.20;82.80;;;;;;10382928;28;20653;-79
2021/05/20 22:26:38;;;;;;;2.30;2.20;;;14.20;83.20;;;;;;10398650;28;20284;-79
2021/05/20 22:32:00;;;;;;;2.17;2.07;;;14.20;82.80;;;;;;10386353;28;20208;-79
2021/05/20 22:37:02;;;;;;;2.83;2.10;;;14.30;81.60;;;;;;10399058;28;20263;-79
2021/05/20 22:42:05;;;;;;;1.90;1.80;;;14.30;80.80;;;;;;10399622;28;20224;-79
2021/05/20 22:47:07;;;;;;;2.17;2.03;;;14.30;82.20;;;;;;10398074;28;20308;-79
2021/05/20 22:52:09;;;;;;;1.93;1.83;;;14.30;81.60;;;;;;10396727;28;20669;-79
2021/05/20 22:57:11;;;;;;;2.60;2.40;;;14.30;82.30;;;;;;10382327;28;20233;-79
2021/05/20 23:02:13;;;;;;;4.70;1.80;;;14.40;81.00;;;;;;10368889;28;20206;-79
2021/05/20 23:07:14;;;;;;;2.00;1.90;;;14.40;81.10;;;;;;10361300;28;20766;-79
2021/05/20 23:12:17;;;;;;;2.00;1.90;;;14.40;81.00;;;;;;10370772;28;20246;-79
2021/05/20 23:17:18;;;;;;;2.00;1.90;;;14.40;81.30;;;;;;10370889;28;20317;-79
2021/05/20 23:22:20;;;;;;;2.10;2.00;;;14.40;80.40;;;;;;10330923;28;20197;-79
2021/05/20 23:27:22;;;;;;;2.43;2.10;;;14.30;81.20;;;;;;10368111;28;20214;-79
2021/05/20 23:32:24;;;;;;;2.40;2.30;;;14.30;81.50;;;;;;10333996;28;20198;-79
2021/05/20 23:37:26;;;;;;;2.10;2.00;;;14.40;80.50;;;;;;10362225;28;20235;-78
2021/05/20 23:42:28;;;;;;;2.03;1.93;;;14.30;83.30;;;;;;10364507;28;20260;-79
2021/05/20 23:47:30;;;;;;;2.20;2.10;;;14.20;82.10;;;;;;10389385;28;20726;-79
2021/05/20 23:52:32;;;;;;;2.50;2.03;;;14.30;81.40;;;;;;10353569;28;20195;-79
2021/05/20 23:57:35;;;;;;;2.90;1.93;;;14.30;80.20;;;;;;10374446;28;20261;-79
